Site contains unofficial IBTrACS data. Visit the IBTrACS Website to access archived data.

1893 Hurricane NOT_NAMED (1893228N18340)


IBTrACS version v04r00. Visit IBTrACS website for data access.
Please direct all questions to the IBTrACS Q and A forum

Storm track - Intensity - Wind Radii - Intensity Data - Source Data - All data

Summary Information

Storm ID 1893228N18340
Start Aug 15 12Z
Landfall Aug 28 06Z, Aug 30 21Z
Max Intensity 105 kt (Aug 23 06Z), 948 mb (Aug 24 18Z)
End Sep 2 18Z
ATCF IDs AL061893
Track status Best track data.

Storm track plot

Map of storm track

Intensity plots

Map of storm track

Radial wind information

No radial wind information for this storm


Position and Intensity Table

BASIN ISO_TIME_________ NATURE LAT LON WMO WIND WMO PRES USA WIND USA PRES MLC WIND MLC PRES
degrees north degrees east kts mb kts mb kts mb
NA 1893-08-15 12:00:00 TS 18.10 -20.20 40 40
NA 15:00:00 TS 17.84 -20.55 40
NA 18:00:00 TS 17.60 -20.90 40 40
NA 21:00:00 TS 17.39 -21.24 40
NA 1893-08-16 00:00:00 TS 17.20 -21.60 40 40
NA 03:00:00 TS 16.99 -21.99 40
NA 06:00:00 TS 16.80 -22.40 40 40
NA 09:00:00 TS 16.64 -22.79 40
NA 12:00:00 TS 16.50 -23.20 40 40
NA 15:00:00 TS 16.34 -23.64 40
NA 18:00:00 TS 16.20 -24.10 40 40
NA 21:00:00 TS 16.09 -24.54 40
NA 1893-08-17 00:00:00 TS 16.00 -25.00 40 40
NA 03:00:00 TS 15.90 -25.50 40
NA 06:00:00 TS 15.80 -26.00 40 40
NA 09:00:00 TS 15.69 -26.46 40
NA 12:00:00 TS 15.60 -26.90 40 40
NA 15:00:00 TS 15.54 -27.36 42
NA 18:00:00 TS 15.50 -27.80 45 45
NA 21:00:00 TS 15.44 -28.21 45
NA 1893-08-18 00:00:00 TS 15.40 -28.60 45 45
NA 03:00:00 TS 15.38 -28.99 47
NA 06:00:00 TS 15.40 -29.40 50 50
NA 09:00:00 TS 15.44 -29.83 50
NA 12:00:00 TS 15.50 -30.30 50 50
NA 15:00:00 TS 15.54 -30.79 52
NA 18:00:00 TS 15.60 -31.30 55 55
NA 21:00:00 TS 15.68 -31.82 55
NA 1893-08-19 00:00:00 TS 15.80 -32.40 55 55
NA 03:00:00 TS 15.93 -33.06 57
NA 06:00:00 TS 16.10 -33.80 60 60
NA 09:00:00 TS 16.28 -34.56 62
NA 12:00:00 TS 16.50 -35.40 65 65
NA 15:00:00 TS 16.74 -36.36 67
NA 18:00:00 TS 17.00 -37.40 70 70
NA 21:00:00 TS 17.25 -38.48 72
NA 1893-08-20 00:00:00 TS 17.50 -39.60 75 75
NA 03:00:00 TS 17.74 -40.76 77
NA 06:00:00 TS 18.00 -41.90 80 80
NA 09:00:00 TS 18.29 -43.31 82
NA 12:00:00 TS 18.56 -44.48 85 85 85
NA 15:00:00 TS 18.80 -45.46 85 85
NA 18:00:00 TS 19.03 -46.33 85 85 85
NA 21:00:00 TS 19.28 -47.10 85 85
NA 1893-08-21 00:00:00 TS 19.53 -47.87 85 85 85
NA 03:00:00 TS 19.82 -48.66 85 85
NA 06:00:00 TS 20.10 -49.43 85 85 85
NA 09:00:00 TS 20.33 -50.17 85 85
NA 12:00:00 TS 20.53 -50.87 85 85 85
NA 15:00:00 TS 20.73 -51.56 85 85
NA 18:00:00 TS 20.90 -52.23 85 85 85
NA 21:00:00 TS 21.06 -52.91 85 85
NA 1893-08-22 00:00:00 TS 21.20 -53.57 85 85 85
NA 03:00:00 TS 21.31 -54.21 85 85
NA 06:00:00 TS 21.40 -54.87 85 972 85 972 85 972
NA 09:00:00 TS 21.49 -55.56 87 87
NA 12:00:00 TS 21.57 -56.27 90 90 90
NA 15:00:00 TS 21.63 -56.98 92 92
NA 18:00:00 TS 21.70 -57.70 95 95 95
NA 21:00:00 TS 21.81 -58.41 97 97
NA 1893-08-23 00:00:00 TS 21.93 -59.10 100 100 100
NA 03:00:00 TS 22.02 -59.77 102 102
NA 06:00:00 TS 22.10 -60.43 105 105 105
NA 09:00:00 TS 22.17 -61.09 105 105
NA 12:00:00 TS 22.23 -61.73 105 105 105
NA 15:00:00 TS 22.28 -62.35 105 105
NA 18:00:00 TS 22.33 -62.93 105 105 105
NA 21:00:00 TS 22.43 -63.49 105 105
NA 1893-08-24 00:00:00 TS 22.53 -64.03 105 105 105
NA 03:00:00 TS 22.59 -64.56 105 105
NA 06:00:00 TS 22.63 -65.10 105 105 105
NA 09:00:00 TS 22.69 -65.68 105 105
NA 12:00:00 TS 22.77 -66.27 105 105 105
NA 15:00:00 TS 22.88 -66.83 105 105
NA 18:00:00 TS 23.03 -67.40 105 105 105 948
NA 21:00:00 TS 23.21 -68.02 105 105
NA 1893-08-25 00:00:00 TS 23.40 -68.63 105 105 105
NA 03:00:00 TS 23.57 -69.20 105 105
NA 06:00:00 TS 23.73 -69.77 105 105 105
NA 09:00:00 TS 23.90 -70.37 105 105
NA 12:00:00 TS 24.07 -71.00 105 105 105
NA 15:00:00 TS 24.25 -71.63 105 105
NA 18:00:00 TS 24.43 -72.27 105 105 105 971
NA 21:00:00 TS 24.59 -72.91 105 105
NA 1893-08-26 00:00:00 TS 24.77 -73.57 105 105 105
NA 03:00:00 TS 24.98 -74.23 105 105
NA 06:00:00 TS 25.20 -74.90 105 105 105
NA 09:00:00 TS 25.39 -75.56 105 105
NA 12:00:00 TS 25.60 -76.20 105 105 105
NA 15:00:00 TS 25.83 -76.82 105 105
NA 18:00:00 TS 26.13 -77.37 105 105 105
NA 21:00:00 TS 26.55 -77.82 105 105
NA 1893-08-27 00:00:00 TS 27.03 -78.23 105 105 105
NA 03:00:00 TS 27.51 -78.68 105 105
NA 06:00:00 TS 28.00 -79.10 105 105 105
NA 09:00:00 TS 28.49 -79.45 105 105
NA 12:00:00 TS 28.97 -79.73 105 105 105
NA 15:00:00 TS 29.39 -79.99 102 102
NA 18:00:00 TS 29.80 -80.20 100 100 100
NA 21:00:00 TS 30.23 -80.32 100 100
NA 1893-08-28 00:00:00 TS 30.73 -80.47 100 954 100 954 100 954
NA 03:00:00 TS 31.24 -80.74 100 954 97 956
NA 05:00:00 TS 31.76 -80.98 100 954 100 954 95 957
NA 06:00:00 TS 32.10 -81.10 90 958 90 958 95 958
NA 09:00:00 TS 33.06 -81.38 82 85
NA 12:00:00 TS 33.90 -81.43 75 75 75
NA 15:00:00 TS 34.68 -81.27 70 70
NA 18:00:00 TS 35.40 -80.90 65 65 65
NA 21:00:00 TS 36.09 -80.47 62 62
NA 1893-08-29 00:00:00 TS 36.80 -79.87 60 60 60
NA 03:00:00 TS 37.57 -79.12 57 57
NA 06:00:00 TS 38.40 -78.20 55 55 55
NA 09:00:00 TS 39.28 -77.15 55 55
NA 12:00:00 TS 40.20 -76.00 55 55 55
NA 15:00:00 TS 41.06 -74.90 55 55
NA 18:00:00 TS 42.00 -73.70 55 55 55
NA 21:00:00 TS 43.11 -72.25 52 52
NA 1893-08-30 00:00:00 TS 44.30 -70.70 50 50 50
NA 03:00:00 TS 45.47 -69.17 50 50
NA 06:00:00 TS 46.60 -67.70 50 50 50
NA 09:00:00 TS 47.66 -66.27 50 50
NA 12:00:00 TS 48.60 -65.00 50 50 50
NA 15:00:00 TS 49.41 -63.95 50 50
NA 18:00:00 MX 50.10 -63.00 50 50 50
NA 21:00:00 MX 50.74 -61.95 50 50
NA 1893-08-31 00:00:00 ET 51.30 -60.90 50 50 50
NA 03:00:00 ET 51.78 -59.88 50 50
NA 06:00:00 ET 52.20 -58.90 50 50 50
NA 09:00:00 ET 52.62 -57.93 50 50
NA 12:00:00 ET 53.00 -57.00 50 50 50
NA 15:00:00 ET 53.32 -56.08 50 50
NA 18:00:00 ET 53.60 -55.20 50 50 50
NA 21:00:00 ET 53.86 -54.34 50 50
NA 1893-09-01 00:00:00 ET 54.10 -53.50 50 50 50
NA 03:00:00 ET 54.32 -52.66 50 50
NA 06:00:00 ET 54.50 -51.80 50 50 50
NA 09:00:00 ET 54.64 -50.92 50 50
NA 12:00:00 ET 54.70 -50.00 50 50 50
NA 15:00:00 ET 54.62 -49.06 50 50
NA 18:00:00 ET 54.50 -48.10 50 50 50
NA 21:00:00 ET 54.45 -47.11 50 50
NA 1893-09-02 00:00:00 ET 54.40 -46.10 50 50 50
NA 03:00:00 ET 54.31 -45.11 50 50
NA 06:00:00 ET 54.20 -44.10 50 50 50
NA 09:00:00 ET 54.09 -43.12 50 50
NA 12:00:00 ET 54.00 -42.00 50 50 50
NA 15:00:00 ET 53.95 -40.63 50 50
NA 18:00:00 ET 53.90 -39.10 50 50 50

Source Information

Agency Information
USA hurdat2-1851-2019-042820.txt:Line=7607:UNNAMED
TOKYO
CMA
HKO
NEWDELHI
REUNION
BOM
NADI
WELLINGTON
DS824
TD9636
TD9635
NEUMANN
MLC

All available IBTrACS Data

SEASON BASIN SUBBASIN ISO_TIME_________ NATURE LAT LON WMO WIND WMO PRES WMO AGENCY DIST2LAND LANDFALL IFLAG USA AGENCY USA ATCF_ID USA LAT USA LON USA RECORD USA STATUS USA WIND USA PRES USA SSHS MLC LAT MLC LON MLC CLASS MLC WIND MLC PRES STORM SPEED STORM DIR
Year degrees north degrees east kts mb km km degrees north degrees east kts mb 1 degrees north degrees east kts mb kts degrees
1893 NA NA 1893-08-15 12:00:00 TS 18.10 -20.20 40 hurdat_atl 415 415 O_____________ hurdat_atl AL061893 18.10 -20.20 TS 40 0 9 232
1893 NA NA 15:00:00 TS 17.84 -20.55 465 465 P_____________ AL061893 17.84 -20.55 TS 40 0 8 233
1893 NA NA 18:00:00 TS 17.60 -20.90 40 hurdat_atl 487 487 O_____________ hurdat_atl AL061893 17.60 -20.90 TS 40 0 8 236
1893 NA NA 21:00:00 TS 17.39 -21.24 497 497 P_____________ AL061893 17.39 -21.24 TS 40 0 8 239
1893 NA NA 1893-08-16 00:00:00 TS 17.20 -21.60 40 hurdat_atl 520 520 O_____________ hurdat_atl AL061893 17.20 -21.60 TS 40 0 8 241
1893 NA NA 03:00:00 TS 16.99 -21.99 545 545 P_____________ AL061893 16.99 -21.99 TS 40 0 9 242
1893 NA NA 06:00:00 TS 16.80 -22.40 40 hurdat_atl 574 574 O_____________ hurdat_atl AL061893 16.80 -22.40 TS 40 0 8 245
1893 NA NA 09:00:00 TS 16.64 -22.79 606 606 P_____________ AL061893 16.64 -22.79 TS 40 0 8 249
1893 NA NA 12:00:00 TS 16.50 -23.20 40 hurdat_atl 643 643 O_____________ hurdat_atl AL061893 16.50 -23.20 TS 40 0 9 250
1893 NA NA 15:00:00 TS 16.34 -23.64 677 677 P_____________ AL061893 16.34 -23.64 TS 40 0 9 251
1893 NA NA 18:00:00 TS 16.20 -24.10 40 hurdat_atl 727 727 O_____________ hurdat_atl AL061893 16.20 -24.10 TS 40 0 9 254
1893 NA NA 21:00:00 TS 16.09 -24.54 766 766 P_____________ AL061893 16.09 -24.54 TS 40 0 9 257
1893 NA NA 1893-08-17 00:00:00 TS 16.00 -25.00 40 hurdat_atl 817 817 O_____________ hurdat_atl AL061893 16.00 -25.00 TS 40 0 9 258
1893 NA NA 03:00:00 TS 15.90 -25.50 868 868 P_____________ AL061893 15.90 -25.50 TS 40 0 10 258
1893 NA NA 06:00:00 TS 15.80 -26.00 40 hurdat_atl 920 920 O_____________ hurdat_atl AL061893 15.80 -26.00 TS 40 0 9 257
1893 NA NA 09:00:00 TS 15.69 -26.46 972 972 P_____________ AL061893 15.69 -26.46 TS 40 0 9 257
1893 NA NA 12:00:00 TS 15.60 -26.90 40 hurdat_atl 1014 1014 O_____________ hurdat_atl AL061893 15.60 -26.90 TS 40 0 9 260
1893 NA NA 15:00:00 TS 15.54 -27.36 1066 1066 P_____________ AL061893 15.54 -27.36 TS 42 0 9 263
1893 NA NA 18:00:00 TS 15.50 -27.80 45 hurdat_atl 1109 1109 O_____________ hurdat_atl AL061893 15.50 -27.80 TS 45 0 8 263
1893 NA NA 21:00:00 TS 15.44 -28.21 1152 1152 P_____________ AL061893 15.44 -28.21 TS 45 0 8 263
1893 NA NA 1893-08-18 00:00:00 TS 15.40 -28.60 45 hurdat_atl 1194 1194 O_____________ hurdat_atl AL061893 15.40 -28.60 TS 45 0 8 266
1893 NA NA 03:00:00 TS 15.38 -28.99 1237 1237 P_____________ AL061893 15.38 -28.99 TS 47 0 8 270
1893 NA NA 06:00:00 TS 15.40 -29.40 50 hurdat_atl 1280 1280 O_____________ hurdat_atl AL061893 15.40 -29.40 TS 50 0 8 274
1893 NA NA 09:00:00 TS 15.44 -29.83 1323 1323 P_____________ AL061893 15.44 -29.83 TS 50 0 9 277
1893 NA NA 12:00:00 TS 15.50 -30.30 50 hurdat_atl 1377 1377 O_____________ hurdat_atl AL061893 15.50 -30.30 TS 50 0 9 276
1893 NA NA 15:00:00 TS 15.54 -30.79 1431 1431 P_____________ AL061893 15.54 -30.79 TS 52 0 10 276
1893 NA NA 18:00:00 TS 15.60 -31.30 55 hurdat_atl 1484 1484 O_____________ hurdat_atl AL061893 15.60 -31.30 TS 55 0 10 278
1893 NA NA 21:00:00 TS 15.68 -31.82 1538 1538 P_____________ AL061893 15.68 -31.82 TS 55 0 11 281
1893 NA NA 1893-08-19 00:00:00 TS 15.80 -32.40 55 hurdat_atl 1603 1603 O_____________ hurdat_atl AL061893 15.80 -32.40 TS 55 0 12 282
1893 NA NA 03:00:00 TS 15.93 -33.06 1678 1678 P_____________ AL061893 15.93 -33.06 TS 57 0 14 283
1893 NA NA 06:00:00 TS 16.10 -33.80 60 hurdat_atl 1754 1754 O_____________ hurdat_atl AL061893 16.10 -33.80 TS 60 0 15 284
1893 NA NA 09:00:00 TS 16.28 -34.56 1841 1841 P_____________ AL061893 16.28 -34.56 TS 62 0 16 285
1893 NA NA 12:00:00 TS 16.50 -35.40 65 hurdat_atl 1927 1927 O_____________ hurdat_atl AL061893 16.50 -35.40 HU 65 1 18 285
1893 NA NA 15:00:00 TS 16.74 -36.36 2035 2035 P_____________ AL061893 16.74 -36.36 HU 67 1 20 285
1893 NA NA 18:00:00 TS 17.00 -37.40 70 hurdat_atl 2079 2016 O_____________ hurdat_atl AL061893 17.00 -37.40 HU 70 1 21 284
1893 NA NA 21:00:00 TS 17.25 -38.48 2008 1959 P_____________ AL061893 17.25 -38.48 HU 72 1 22 283
1893 NA NA 1893-08-20 00:00:00 TS 17.50 -39.60 75 hurdat_atl 1952 1893 O_____________ hurdat_atl AL061893 17.50 -39.60 HU 75 1 22 283
1893 NA NA 03:00:00 TS 17.74 -40.76 1886 1850 P_____________ AL061893 17.74 -40.76 HU 77 1 22 283
1893 NA NA 06:00:00 TS 18.00 -41.90 80 hurdat_atl 1844 1784 O_____________ hurdat_atl AL061893 18.00 -41.90 HU 80 1 25 283
1893 NA NA 09:00:00 TS 18.29 -43.31 1781 1735 P_____________ AL061893 18.29 -42.99 HU 82 1 25 283
1893 NA NA 12:00:00 TS 18.56 -44.48 85 hurdat_atl 1739 1711 O____________O hurdat_atl AL061893 18.60 -44.00 HU 85 2 18.40 -46.40 HU 85 21 284
1893 NA NA 15:00:00 TS 18.80 -45.46 1706 1688 P____________P AL061893 18.90 -44.92 HU 85 2 18.55 -46.90 HU 85 18 285
1893 NA NA 18:00:00 TS 19.03 -46.33 85 hurdat_atl 1688 1678 O____________O hurdat_atl AL061893 19.20 -45.80 HU 85 2 18.70 -47.40 HU 85 16 287
1893 NA NA 21:00:00 TS 19.28 -47.10 1684 1671 P____________P AL061893 19.49 -46.70 HU 85 2 18.85 -47.89 HU 85 15 289
1893 NA NA 1893-08-21 00:00:00 TS 19.53 -47.87 85 hurdat_atl 1668 1665 O____________O hurdat_atl AL061893 19.80 -47.60 HU 85 2 19.00 -48.40 HU 85 16 290
1893 NA NA 03:00:00 TS 19.82 -48.66 1665 1627 P____________P AL061893 20.16 -48.51 HU 85 2 19.15 -48.94 HU 85 16 291
1893 NA NA 06:00:00 TS 20.10 -49.43 85 hurdat_atl 1627 1586 O____________O hurdat_atl AL061893 20.50 -49.40 HU 85 2 19.30 -49.50 HU 85 15 290
1893 NA NA 09:00:00 TS 20.33 -50.17 1578 1547 P____________P AL061893 20.77 -50.22 HU 85 2 19.45 -50.05 HU 85 14 288
1893 NA NA 12:00:00 TS 20.53 -50.87 85 hurdat_atl 1539 1499 O____________O hurdat_atl AL061893 21.00 -51.00 HU 85 2 19.60 -50.60 HU 85 14 287
1893 NA NA 15:00:00 TS 20.73 -51.56 1488 1430 P____________P AL061893 21.21 -51.76 HU 85 2 19.75 -51.16 HU 85 13 286
1893 NA NA 18:00:00 TS 20.90 -52.23 85 hurdat_atl 1430 1362 O____________O hurdat_atl AL061893 21.40 -52.50 HU 85 2 19.90 -51.70 HU 85 13 285
1893 NA NA 21:00:00 TS 21.06 -52.91 1362 1303 P____________P AL061893 21.56 -53.25 HU 85 2 20.06 -52.22 HU 85 13 284
1893 NA NA 1893-08-22 00:00:00 TS 21.20 -53.57 85 hurdat_atl 1293 1235 O____________O hurdat_atl AL061893 21.70 -54.00 HU 85 2 20.20 -52.70 HU 85 12 281
1893 NA NA 03:00:00 TS 21.31 -54.21 1235 1177 P____________P AL061893 21.81 -54.75 HU 85 2 20.30 -53.14 HU 85 12 279
1893 NA NA 06:00:00 TS 21.40 -54.87 85 972 hurdat_atl 1167 1110 O____________O hurdat_atl AL061893 21.90 -55.50 HU 85 972 2 20.40 -53.60 HU 85 972 13 278
1893 NA NA 09:00:00 TS 21.49 -55.56 1100 1045 P____________P AL061893 21.96 -56.25 HU 87 2 20.55 -54.17 HU 87 13 277
1893 NA NA 12:00:00 TS 21.57 -56.27 90 hurdat_atl 1035 976 O____________O hurdat_atl AL061893 22.00 -57.00 HU 90 2 20.70 -54.80 HU 90 13 276
1893 NA NA 15:00:00 TS 21.63 -56.98 966 903 P____________P AL061893 22.04 -57.75 HU 92 2 20.80 -55.45 HU 92 13 276
1893 NA NA 18:00:00 TS 21.70 -57.70 95 hurdat_atl 903 842 O____________O hurdat_atl AL061893 22.10 -58.50 HU 95 2 20.90 -56.10 HU 95 13 278
1893 NA NA 21:00:00 TS 21.81 -58.41 842 783 P____________P AL061893 22.20 -59.26 HU 97 3 21.04 -56.71 HU 97 13 280
1893 NA NA 1893-08-23 00:00:00 TS 21.93 -59.10 100 hurdat_atl 783 735 O____________O hurdat_atl AL061893 22.30 -60.00 HU 100 3 21.20 -57.30 MH 100 13 279
1893 NA NA 03:00:00 TS 22.02 -59.77 726 682 P____________P AL061893 22.36 -60.72 HU 102 3 21.36 -57.89 MH 102 12 278
1893 NA NA 06:00:00 TS 22.10 -60.43 105 hurdat_atl 682 633 O____________O hurdat_atl AL061893 22.40 -61.40 HU 105 3 21.50 -58.50 MH 105 12 277
1893 NA NA 09:00:00 TS 22.17 -61.09 633 588 P____________P AL061893 22.45 -62.07 HU 105 3 21.61 -59.15 MH 105 12 276
1893 NA NA 12:00:00 TS 22.23 -61.73 105 hurdat_atl 588 555 O____________O hurdat_atl AL061893 22.50 -62.70 HU 105 3 21.70 -59.80 MH 105 12 275
1893 NA NA 15:00:00 TS 22.28 -62.35 555 519 P____________P AL061893 22.54 -63.32 HU 105 3 21.75 -60.40 MH 105 11 275
1893 NA NA 18:00:00 TS 22.33 -62.93 105 hurdat_atl 519 497 O____________O hurdat_atl AL061893 22.60 -63.90 HU 105 3 21.80 -61.00 MH 105 11 278
1893 NA NA 21:00:00 TS 22.43 -63.49 497 487 P____________P AL061893 22.70 -64.41 HU 105 3 21.90 -61.65 MH 105 10 281
1893 NA NA 1893-08-24 00:00:00 TS 22.53 -64.03 105 hurdat_atl 487 481 O____________O hurdat_atl AL061893 22.80 -64.90 HU 105 3 22.00 -62.30 MH 105 10 279
1893 NA NA 03:00:00 TS 22.59 -64.56 481 472 P____________P AL061893 22.86 -65.39 HU 105 3 22.05 -62.90 MH 105 10 276
1893 NA NA 06:00:00 TS 22.63 -65.10 105 hurdat_atl 472 470 O____________O hurdat_atl AL061893 22.90 -65.90 HU 105 3 22.10 -63.50 MH 105 10 276
1893 NA NA 09:00:00 TS 22.69 -65.68 480 480 P____________P AL061893 22.94 -66.44 HU 105 3 22.18 -64.15 MH 105 11 277
1893 NA NA 12:00:00 TS 22.77 -66.27 105 hurdat_atl 492 475 O____________O hurdat_atl AL061893 23.00 -67.00 HU 105 3 22.30 -64.80 MH 105 11 280
1893 NA NA 15:00:00 TS 22.88 -66.83 478 458 P____________P AL061893 23.08 -67.54 HU 105 3 22.48 -65.40 MH 105 11 284
1893 NA NA 18:00:00 TS 23.03 -67.40 105 hurdat_atl 458 452 O____________O hurdat_atl AL061893 23.20 -68.10 HU 105 3 22.70 -66.00 MH 105 948 11 287
1893 NA NA 21:00:00 TS 23.21 -68.02 452 441 P____________P AL061893 23.34 -68.70 HU 105 3 22.95 -66.65 MH 105 12 288
1893 NA NA 1893-08-25 00:00:00 TS 23.40 -68.63 105 hurdat_atl 448 441 O____________O hurdat_atl AL061893 23.50 -69.30 HU 105 3 23.20 -67.30 MH 105 11 288
1893 NA NA 03:00:00 TS 23.57 -69.20 448 439 P____________P AL061893 23.65 -69.85 HU 105 3 23.41 -67.90 MH 105 11 288
1893 NA NA 06:00:00 TS 23.73 -69.77 105 hurdat_atl 431 408 O____________O hurdat_atl AL061893 23.80 -70.40 HU 105 3 23.60 -68.50 MH 105 11 287
1893 NA NA 09:00:00 TS 23.90 -70.37 402 380 P____________P AL061893 23.95 -70.99 HU 105 3 23.79 -69.15 MH 105 12 286
1893 NA NA 12:00:00 TS 24.07 -71.00 105 hurdat_atl 383 364 O____________O hurdat_atl AL061893 24.10 -71.60 HU 105 3 24.00 -69.80 MH 105 12 287
1893 NA NA 15:00:00 TS 24.25 -71.63 364 364 P____________P AL061893 24.25 -72.24 HU 105 3 24.25 -70.40 MH 105 12 288
1893 NA NA 18:00:00 TS 24.43 -72.27 105 hurdat_atl 364 364 O____________O hurdat_atl AL061893 24.40 -72.90 HU 105 3 24.50 -71.00 MH 105 971 12 286
1893 NA NA 21:00:00 TS 24.59 -72.91 380 380 P____________P AL061893 24.54 -73.54 HU 105 3 24.70 -71.65 MH 105 12 286
1893 NA NA 1893-08-26 00:00:00 TS 24.77 -73.57 105 hurdat_atl 404 357 O____________O hurdat_atl AL061893 24.70 -74.20 HU 105 3 24.90 -72.30 MH 105 13 288
1893 NA NA 03:00:00 TS 24.98 -74.23 357 292 P____________P AL061893 24.89 -74.90 HU 105 3 25.15 -72.90 MH 105 13 290
1893 NA NA 06:00:00 TS 25.20 -74.90 105 hurdat_atl 292 243 O____________O hurdat_atl AL061893 25.10 -75.60 HU 105 3 25.40 -73.50 MH 105 13 289
1893 NA NA 09:00:00 TS 25.39 -75.56 234 187 P____________P AL061893 25.28 -76.27 HU 105 3 25.61 -74.14 MH 105 12 289
1893 NA NA 12:00:00 TS 25.60 -76.20 105 hurdat_atl 187 143 O____________O hurdat_atl AL061893 25.50 -76.90 HU 105 3 25.80 -74.80 MH 105 12 291
1893 NA NA 15:00:00 TS 25.83 -76.82 143 128 P____________P AL061893 25.76 -77.48 HU 105 3 25.96 -75.49 MH 105 12 297
1893 NA NA 18:00:00 TS 26.13 -77.37 105 hurdat_atl 126 126 O____________O hurdat_atl AL061893 26.10 -78.00 HU 105 3 26.20 -76.10 MH 105 12 309
1893 NA NA 21:00:00 TS 26.55 -77.82 168 167 P____________P AL061893 26.52 -78.47 HU 105 3 26.61 -76.54 MH 105 12 319
1893 NA NA 1893-08-27 00:00:00 TS 27.03 -78.23 105 hurdat_atl 179 149 O____________O hurdat_atl AL061893 27.00 -78.90 HU 105 3 27.10 -76.90 MH 105 12 321
1893 NA NA 03:00:00 TS 27.51 -78.68 149 130 P____________P AL061893 27.49 -79.38 HU 105 3 27.55 -77.29 MH 105 12 322
1893 NA NA 06:00:00 TS 28.00 -79.10 105 hurdat_atl 135 107 O____________O hurdat_atl AL061893 28.00 -79.80 HU 105 3 28.00 -77.70 MH 105 12 326
1893 NA NA 09:00:00 TS 28.49 -79.45 107 84 P____________P AL061893 28.52 -80.10 HU 105 3 28.43 -78.15 MH 105 11 330
1893 NA NA 12:00:00 TS 28.97 -79.73 105 hurdat_atl 95 88 O____________O hurdat_atl AL061893 29.00 -80.30 HU 105 3 28.90 -78.60 MH 105 10 332
1893 NA NA 15:00:00 TS 29.39 -79.99 93 89 P____________P AL061893 29.36 -80.48 HU 102 3 29.44 -79.02 MH 102 9 334
1893 NA NA 18:00:00 TS 29.80 -80.20 100 hurdat_atl 97 97 O____________O hurdat_atl AL061893 29.70 -80.60 HU 100 3 30.00 -79.40 MH 100 9 342
1893 NA NA 21:00:00 TS 30.23 -80.32 106 85 P____________P AL061893 30.10 -80.63 HU 100 3 30.50 -79.69 MH 100 10 346
1893 NA NA 1893-08-28 00:00:00 TS 30.73 -80.47 100 954 hurdat_atl 85 58 O____________O hurdat_atl AL061893 30.60 -80.70 HU 100 954 3 31.00 -80.00 MH 100 954 11 340
1893 NA NA 03:00:00 TS 31.24 -80.74 58 11 P____________P AL061893 31.12 -80.91 HU 100 954 3 31.49 -80.41 MH 97 956 13 337
1893 NA NA 05:00:00 TS 31.76 -80.98 100 954 hurdat_atl 11 0 O____________P hurdat_atl AL061893 31.70 -81.10 L HU 100 954 3 31.87 -80.73 MH 95 957 18 341
1893 NA NA 06:00:00 TS 32.10 -81.10 90 958 hurdat_atl 0 0 O____________O hurdat_atl AL061893 32.10 -81.20 HU 90 958 2 32.10 -80.90 HU 95 958 20 345
1893 NA NA 09:00:00 TS 33.06 -81.38 0 0 P____________P AL061893 33.10 -81.28 HU 82 1 32.97 -81.59 HU 85 18 351
1893 NA NA 12:00:00 TS 33.90 -81.43 75 hurdat_atl 0 0 O____________O hurdat_atl AL061893 33.90 -81.10 HU 75 1 33.90 -82.10 HU 75 16 3
1893 NA NA 15:00:00 TS 34.68 -81.27 0 0 P____________P AL061893 34.68 -80.86 HU 70 1 34.68 -82.09 HU 70 16 16
1893 NA NA 18:00:00 TS 35.40 -80.90 65 hurdat_atl 0 0 O____________O hurdat_atl AL061893 35.40 -80.50 HU 65 1 35.40 -81.70 HU 65 16 25
1893 NA NA 21:00:00 TS 36.09 -80.47 0 0 P____________P AL061893 36.09 -80.11 HU 62 0 36.09 -81.18 HU 62 16 31
1893 NA NA 1893-08-29 00:00:00 TS 36.80 -79.87 60 hurdat_atl 0 0 O____________O hurdat_atl AL061893 36.80 -79.60 TS 60 0 36.80 -80.40 TS 60 18 36
1893 NA NA 03:00:00 TS 37.57 -79.12 0 0 P____________P AL061893 37.57 -78.99 TS 57 0 37.57 -79.37 TS 57 21 40
1893 NA NA 06:00:00 TS 38.40 -78.20 55 hurdat_atl 0 0 O____________O hurdat_atl AL061893 38.40 -78.20 TS 55 0 38.40 -78.20 TS 55 23 42
1893 NA NA 09:00:00 TS 39.28 -77.15 0 0 P____________P AL061893 39.29 -77.17 TS 55 0 39.28 -77.11 TS 55 25 43
1893 NA NA 12:00:00 TS 40.20 -76.00 55 hurdat_atl 0 0 O____________O hurdat_atl AL061893 40.20 -76.00 TS 55 0 40.20 -76.00 TS 55 25 44
1893 NA NA 15:00:00 TS 41.06 -74.90 0 0 P____________P AL061893 41.06 -74.90 TS 55 0 41.06 -74.90 TS 55 25 44
1893 NA NA 18:00:00 TS 42.00 -73.70 55 hurdat_atl 0 0 O____________O hurdat_atl AL061893 42.00 -73.70 TS 55 0 42.00 -73.70 TS 55 28 44
1893 NA NA 21:00:00 TS 43.11 -72.25 0 0 P____________P AL061893 43.11 -72.25 TS 52 0 43.11 -72.25 TS 52 32 44
1893 NA NA 1893-08-30 00:00:00 TS 44.30 -70.70 50 hurdat_atl 0 0 O____________O hurdat_atl AL061893 44.30 -70.70 TS 50 0 44.30 -70.70 TS 50 32 43
1893 NA NA 03:00:00 TS 45.47 -69.17 0 0 P____________P AL061893 45.47 -69.17 TS 50 0 45.47 -69.17 TS 50 31 42
1893 NA NA 06:00:00 TS 46.60 -67.70 50 hurdat_atl 0 0 O____________O hurdat_atl AL061893 46.60 -67.70 TS 50 0 46.60 -67.70 TS 50 30 42
1893 NA NA 09:00:00 TS 47.66 -66.27 0 0 P____________P AL061893 47.66 -66.27 TS 50 0 47.66 -66.27 TS 50 27 42
1893 NA NA 12:00:00 TS 48.60 -65.00 50 hurdat_atl 0 0 O____________O hurdat_atl AL061893 48.60 -65.00 TS 50 0 48.60 -65.00 TS 50 23 41
1893 NA NA 15:00:00 TS 49.41 -63.95 18 0 P____________P AL061893 49.41 -63.95 TS 50 0 49.41 -63.95 TS 50 20 41
1893 NA NA 18:00:00 MX 50.10 -63.00 50 hurdat_atl 22 0 O____________O hurdat_atl AL061893 50.10 -63.00 TS 50 0 50.10 -63.00 EX 50 18 44
1893 NA NA 21:00:00 MX 50.74 -61.95 0 0 P____________P AL061893 50.74 -61.95 TS 50 0 50.74 -61.95 EX 50 18 48
1893 NA NA 1893-08-31 00:00:00 ET 51.30 -60.90 50 hurdat_atl 0 0 O____________O hurdat_atl AL061893 51.30 -60.90 EX 50 -4 51.30 -60.90 EX 50 16 51
1893 NA NA 03:00:00 ET 51.78 -59.88 0 0 P____________P AL061893 51.78 -59.88 EX 50 -4 51.78 -59.88 EX 50 15 54
1893 NA NA 06:00:00 ET 52.20 -58.90 50 hurdat_atl 0 0 O____________O hurdat_atl AL061893 52.20 -58.90 EX 50 -4 52.20 -58.90 EX 50 15 55
1893 NA NA 09:00:00 ET 52.62 -57.93 0 0 P____________P AL061893 52.62 -57.93 EX 50 -4 52.62 -57.93 EX 50 14 55
1893 NA NA 12:00:00 ET 53.00 -57.00 50 hurdat_atl 0 0 O____________O hurdat_atl AL061893 53.00 -57.00 EX 50 -4 53.00 -57.00 EX 50 13 58
1893 NA NA 15:00:00 ET 53.32 -56.08 0 0 P____________P AL061893 53.32 -56.08 EX 50 -4 53.32 -56.08 EX 50 12 61
1893 NA NA 18:00:00 ET 53.60 -55.20 50 hurdat_atl 51 51 O____________O hurdat_atl AL061893 53.60 -55.20 EX 50 -4 53.60 -55.20 EX 50 12 62
1893 NA NA 21:00:00 ET 53.86 -54.34 116 116 P____________P AL061893 53.86 -54.34 EX 50 -4 53.86 -54.34 EX 50 11 63
1893 NA NA 1893-09-01 00:00:00 ET 54.10 -53.50 50 hurdat_atl 172 172 O____________O hurdat_atl AL061893 54.10 -53.50 EX 50 -4 54.10 -53.50 EX 50 11 65
1893 NA NA 03:00:00 ET 54.32 -52.66 228 228 P____________P AL061893 54.32 -52.66 EX 50 -4 54.32 -52.66 EX 50 11 68
1893 NA NA 06:00:00 ET 54.50 -51.80 50 hurdat_atl 290 290 O____________O hurdat_atl AL061893 54.50 -51.80 EX 50 -4 54.50 -51.80 EX 50 11 72
1893 NA NA 09:00:00 ET 54.64 -50.92 348 348 P____________P AL061893 54.64 -50.92 EX 50 -4 54.64 -50.92 EX 50 11 79
1893 NA NA 12:00:00 ET 54.70 -50.00 50 hurdat_atl 407 407 O____________O hurdat_atl AL061893 54.70 -50.00 EX 50 -4 54.70 -50.00 EX 50 11 91
1893 NA NA 15:00:00 ET 54.62 -49.06 459 459 P____________P AL061893 54.62 -49.06 EX 50 -4 54.62 -49.06 EX 50 11 100
1893 NA NA 18:00:00 ET 54.50 -48.10 50 hurdat_atl 518 518 O____________O hurdat_atl AL061893 54.50 -48.10 EX 50 -4 54.50 -48.10 EX 50 11 99
1893 NA NA 21:00:00 ET 54.45 -47.11 580 580 P____________P AL061893 54.45 -47.11 EX 50 -4 54.45 -47.11 EX 50 12 95
1893 NA NA 1893-09-02 00:00:00 ET 54.40 -46.10 50 hurdat_atl 625 621 O____________O hurdat_atl AL061893 54.40 -46.10 EX 50 -4 54.40 -46.10 EX 50 12 97
1893 NA NA 03:00:00 ET 54.31 -45.11 631 631 P____________P AL061893 54.31 -45.11 EX 50 -4 54.31 -45.11 EX 50 12 100
1893 NA NA 06:00:00 ET 54.20 -44.10 50 hurdat_atl 643 643 O____________O hurdat_atl AL061893 54.20 -44.10 EX 50 -4 54.20 -44.10 EX 50 12 101
1893 NA NA 09:00:00 ET 54.09 -43.12 659 659 P____________P AL061893 54.09 -43.12 EX 50 -4 54.09 -43.12 EX 50 12 99
1893 NA NA 12:00:00 ET 54.00 -42.00 50 hurdat_atl 678 678 O____________O hurdat_atl AL061893 54.00 -42.00 EX 50 -4 54.00 -42.00 EX 50 15 96
1893 NA NA 15:00:00 ET 53.95 -40.63 702 702 P____________P AL061893 53.95 -40.63 EX 50 -4 53.95 -40.63 EX 50 17 93
1893 NA NA 18:00:00 ET 53.90 -39.10 50 hurdat_atl 727 O____________O hurdat_atl AL061893 53.90 -39.10 EX 50 -4 53.90 -39.10 EX 50 18 93